Time;durP1;ratioP1;P1;durP2;ratioP2;P2;SDS_P1;SDS_P2;PMS_P1;PMS_P2;Temp;Humidity;BMP_temperature;BMP_pressure;BME280_temperature;BME280_humidity;BME280_pressure;Samples;Min_cycle;Max_cycle;Signal;HPM_P1;HPM_P2
2021/10/18 00:01:37;;;;;;;24.77;15.80;;;;;;;11.86;77.46;100781.91;5091282;28;20040;-19
2021/10/18 00:04:02;;;;;;;27.08;17.33;;;;;;;12.03;76.28;100756.41;5073014;28;20039;-19
2021/10/18 00:06:28;;;;;;;24.48;16.38;;;;;;;12.21;75.72;100778.94;5090907;28;20108;-19
2021/10/18 00:08:53;;;;;;;25.15;16.00;;;;;;;12.44;74.75;100784.59;5091120;28;20476;-19
2021/10/18 00:11:19;;;;;;;26.42;16.75;;;;;;;12.22;74.50;100768.03;5090937;28;20035;-19
2021/10/18 00:13:45;;;;;;;25.67;16.02;;;;;;;11.85;77.34;100788.28;5073113;28;20024;-19
2021/10/18 00:16:10;;;;;;;25.80;17.05;;;;;;;11.60;77.61;100780.91;5090704;28;20078;-19
2021/10/18 00:18:36;;;;;;;26.08;16.23;;;;;;;11.46;79.08;100773.94;5090849;28;20032;-19
2021/10/18 00:21:01;;;;;;;25.58;17.20;;;;;;;11.52;78.75;100773.13;5090721;28;20119;-19
2021/10/18 00:23:27;;;;;;;23.75;16.40;;;;;;;11.40;78.90;100774.78;5072851;28;20028;-19
2021/10/18 00:25:53;;;;;;;26.42;16.67;;;;;;;11.44;79.02;100773.34;5090331;28;20421;-19
2021/10/18 00:28:19;;;;;;;26.40;16.67;;;;;;;11.41;78.92;100776.44;5090664;28;20038;-19
2021/10/18 00:30:44;;;;;;;27.10;16.85;;;;;;;11.50;78.31;100769.03;5090624;28;20145;-19
2021/10/18 00:33:10;;;;;;;29.27;16.85;;;;;;;11.52;78.22;100765.09;5090396;28;20189;-19
2021/10/18 00:35:35;;;;;;;26.63;16.13;;;;;;;11.59;77.79;100749.91;5090369;28;20494;-19
2021/10/18 00:38:01;;;;;;;23.88;15.88;;;;;;;11.47;77.85;100754.25;5090620;28;20035;-20
2021/10/18 00:40:26;;;;;;;25.73;16.13;;;;;;;11.11;79.43;100750.16;5090428;28;20027;-18
2021/10/18 00:42:53;;;;;;;25.65;16.58;;;;;;;11.17;79.77;100760.00;5090259;28;20035;-19
2021/10/18 00:45:19;;;;;;;27.15;16.23;;;;;;;11.37;79.10;100753.84;5090210;28;20064;-19
2021/10/18 00:47:44;;;;;;;24.15;16.10;;;;;;;11.28;79.25;100755.91;5072199;28;20035;-19
2021/10/18 00:50:10;;;;;;;24.17;16.33;;;;;;;10.94;80.92;100757.75;5090224;28;20036;-19
2021/10/18 00:52:36;;;;;;;24.08;15.65;;;;;;;10.86;81.78;100769.44;5071915;28;20077;-20
2021/10/18 00:55:02;;;;;;;25.83;15.88;;;;;;;11.21;81.19;100765.75;5054986;28;20032;-19
2021/10/18 00:57:27;;;;;;;26.63;15.43;;;;;;;11.23;79.36;100759.19;5090087;28;20103;-19
2021/10/18 00:59:53;;;;;;;26.20;17.50;;;;;;;11.04;80.82;100766.16;5071749;28;20185;-19
2021/10/18 01:02:18;;;;;;;25.95;16.17;;;;;;;10.96;81.05;100750.34;5055248;28;20035;-19
2021/10/18 01:04:44;;;;;;;23.75;15.55;;;;;;;11.08;81.09;100755.91;5089908;28;20032;-19
2021/10/18 01:07:10;;;;;;;25.98;15.27;;;;;;;11.20;80.94;100764.13;5089853;28;20465;-19
2021/10/18 01:09:35;;;;;;;25.40;16.90;;;;;;;11.45;79.68;100764.31;5055187;28;20039;-19
2021/10/18 01:12:01;;;;;;;25.70;15.98;;;;;;;11.64;78.85;100759.97;5071902;28;20027;-19
2021/10/18 01:14:26;;;;;;;24.95;16.30;;;;;;;12.13;77.37;100763.13;5089659;28;20032;-19
2021/10/18 01:16:51;;;;;;;27.55;17.02;;;;;;;12.31;75.83;100759.78;5089483;28;20035;-20
2021/10/18 01:19:21;;;;;;;25.63;15.75;;;;;;;12.39;75.13;100773.72;5089815;28;20796;-19
2021/10/18 01:21:47;;;;;;;23.20;15.88;;;;;;;12.10;75.62;100766.25;5071911;28;20020;-20
2021/10/18 01:24:12;;;;;;;25.33;16.45;;;;;;;11.82;76.67;100770.81;5089792;28;20085;-19
2021/10/18 01:26:38;;;;;;;25.98;16.15;;;;;;;11.37;79.06;100760.00;5071603;28;20034;-19
2021/10/18 01:29:03;;;;;;;25.42;16.48;;;;;;;11.09;80.87;100757.53;5071105;28;20085;-19
2021/10/18 01:31:29;;;;;;;25.92;16.75;;;;;;;11.16;81.09;100754.91;5071080;28;20043;-19
2021/10/18 01:33:54;;;;;;;27.15;16.42;;;;;;;11.24;80.67;100750.16;5089406;28;20031;-19
2021/10/18 01:36:20;;;;;;;27.08;16.02;;;;;;;11.12;80.60;100762.47;5089609;28;20035;-19
2021/10/18 01:38:46;;;;;;;25.25;16.25;;;;;;;11.12;80.57;100762.47;5071000;28;20369;-19
2021/10/18 01:41:11;;;;;;;25.02;15.65;;;;;;;11.31;79.62;100754.66;5071334;28;20035;-19
2021/10/18 01:43:37;;;;;;;25.42;16.52;;;;;;;11.29;79.10;100751.38;5071099;28;20024;-19
2021/10/18 01:46:03;;;;;;;26.08;16.63;;;;;;;11.39;79.41;100757.13;5089107;28;20054;-20
2021/10/18 01:48:30;;;;;;;25.15;16.88;;;;;;;11.30;79.88;100748.53;5071015;28;20093;-18
2021/10/18 01:50:55;;;;;;;24.35;16.08;;;;;;;11.56;78.33;100747.63;5088935;28;20035;-19
2021/10/18 01:53:21;;;;;;;25.23;15.70;;;;;;;11.48;78.90;100763.06;5088916;28;20056;-19
2021/10/18 01:55:46;;;;;;;28.08;16.73;;;;;;;11.81;77.98;100765.66;5089134;28;20082;-19
2021/10/18 01:58:12;;;;;;;33.97;16.70;;;;;;;11.79;78.14;100762.38;5088975;28;20020;-19
2021/10/18 02:00:38;;;;;;;27.27;15.70;;;;;;;11.65;78.74;100773.13;5088565;28;20476;-22
2021/10/18 02:03:04;;;;;;;23.88;15.30;;;;;;;11.35;79.74;100767.41;5088897;28;20028;-19
2021/10/18 02:05:29;;;;;;;25.42;15.95;;;;;;;11.29;80.17;100762.06;5071310;28;20237;-19
2021/10/18 02:07:55;;;;;;;26.15;16.38;;;;;;;11.31;81.34;100763.50;5088702;28;20036;-19
2021/10/18 02:10:20;;;;;;;24.52;15.93;;;;;;;11.68;79.62;100765.72;5070982;28;20472;-19
2021/10/18 02:12:46;;;;;;;26.17;15.57;;;;;;;11.90;78.31;100772.47;5088583;28;20031;-19
2021/10/18 02:15:12;;;;;;;24.77;16.88;;;;;;;11.81;78.63;100765.66;5070802;28;20407;-19
2021/10/18 02:17:37;;;;;;;22.73;14.95;;;;;;;11.57;80.38;100754.63;5070867;28;20093;-19
2021/10/18 02:20:04;;;;;;;23.30;15.73;;;;;;;11.51;80.01;100758.13;5089088;28;20039;-19
2021/10/18 02:22:29;;;;;;;28.73;16.20;;;;;;;11.51;79.63;100750.13;5070708;28;20032;-19
2021/10/18 02:24:56;;;;;;;29.73;15.98;;;;;;;11.41;80.60;100745.22;5088730;28;20035;-19
2021/10/18 02:27:21;;;;;;;25.13;16.60;;;;;;;11.41;79.66;100750.53;5088657;28;20458;-18
2021/10/18 02:29:47;;;;;;;24.27;15.70;;;;;;;11.43;80.24;100766.38;5088804;28;20031;-19
2021/10/18 02:32:12;;;;;;;26.65;15.95;;;;;;;11.29;79.86;100767.41;5088566;28;20048;-19
2021/10/18 02:34:38;;;;;;;23.05;14.32;;;;;;;11.49;79.93;100768.22;5088751;28;20039;-19
2021/10/18 02:37:03;;;;;;;25.38;15.60;;;;;;;11.44;80.13;100765.31;5088926;28;20101;-19
2021/10/18 02:39:29;;;;;;;26.52;15.68;;;;;;;12.10;77.28;100769.75;5089102;28;20028;-20
2021/10/18 02:41:54;;;;;;;25.50;16.45;;;;;;;11.93;77.71;100766.72;5088860;28;20032;-19
2021/10/18 02:44:19;;;;;;;24.70;16.23;;;;;;;11.76;79.03;100785.00;5088762;28;20824;-19
2021/10/18 02:46:45;;;;;;;27.02;16.33;;;;;;;12.06;77.26;100779.22;5088390;28;20036;-21
2021/10/18 02:49:10;;;;;;;24.50;16.35;;;;;;;12.23;77.41;100784.91;5089283;28;20035;-19
2021/10/18 02:51:36;;;;;;;25.52;16.50;;;;;;;11.83;79.12;100790.34;5088410;28;20032;-19
2021/10/18 02:54:04;;;;;;;25.52;17.15;;;;;;;11.91;79.46;100786.66;5088692;28;20024;-19
2021/10/18 02:56:30;;;;;;;;;;;;;;;11.69;79.51;100789.56;5088854;28;20479;-19
2021/10/18 02:58:55;;;;;;;23.00;15.07;;;;;;;11.87;79.16;100759.50;5088263;28;19995;-19
2021/10/18 03:01:20;;;;;;;23.33;15.85;;;;;;;12.24;77.77;100776.66;5088324;28;20024;-19
2021/10/18 03:03:46;;;;;;;24.90;16.50;;;;;;;12.32;76.87;100778.28;5088407;28;20032;-18
2021/10/18 03:06:11;;;;;;;23.63;16.23;;;;;;;12.08;78.61;100792.38;5088394;28;20413;-19
2021/10/18 03:08:37;;;;;;;25.08;17.27;;;;;;;12.25;78.01;100788.19;5088524;28;20039;-19
2021/10/18 03:11:02;;;;;;;25.40;17.25;;;;;;;12.13;77.91;100789.88;5088467;28;20032;-19
2021/10/18 03:13:28;;;;;;;24.75;15.68;;;;;;;12.20;78.26;100790.69;5091602;28;20524;-19
2021/10/18 03:15:54;;;;;;;26.27;16.42;;;;;;;12.26;77.33;100787.97;5092010;28;20035;-19
2021/10/18 03:18:20;;;;;;;26.10;16.48;;;;;;;11.97;78.96;100796.50;5091990;28;20038;-20
2021/10/18 03:20:45;;;;;;;27.38;15.60;;;;;;;11.82;79.59;100786.84;5092177;28;20043;-19
2021/10/18 03:23:10;;;;;;;25.20;15.55;;;;;;;11.82;79.20;100778.00;5074119;28;20032;-18
2021/10/18 03:25:36;;;;;;;22.45;15.15;;;;;;;11.70;79.32;100779.69;5091849;28;20016;-18
2021/10/18 03:28:03;;;;;;;25.10;15.93;;;;;;;11.25;81.53;100772.34;5091703;28;20035;-19
2021/10/18 03:30:28;;;;;;;22.20;15.02;;;;;;;11.25;81.22;100778.47;5091429;28;20047;-19
2021/10/18 03:32:54;;;;;;;22.08;15.52;;;;;;;11.54;80.50;100787.09;5073294;28;20103;-19
2021/10/18 03:35:20;;;;;;;25.10;16.00;;;;;;;11.43;80.92;100785.06;5090641;28;20113;-19
2021/10/18 03:37:45;;;;;;;27.25;16.33;;;;;;;11.22;81.08;100765.56;5090236;28;20032;-19
2021/10/18 03:40:12;;;;;;;25.15;16.23;;;;;;;11.16;82.77;100789.59;5091525;28;20036;-19
2021/10/18 03:42:38;;;;;;;25.17;15.90;;;;;;;11.15;83.31;100782.59;5091541;28;20024;-19
2021/10/18 03:45:06;;;;;;;24.00;15.15;;;;;;;10.97;84.04;100772.53;5091276;28;20039;-19
2021/10/18 03:47:31;;;;;;;27.10;16.20;;;;;;;11.04;83.53;100792.03;5091848;28;20020;-19
2021/10/18 03:49:57;;;;;;;25.23;17.13;;;;;;;11.42;81.51;100788.75;5073368;28;20044;-19
2021/10/18 03:52:22;;;;;;;23.92;15.98;;;;;;;11.51;81.03;100787.53;5091447;28;20480;-19
2021/10/18 03:54:48;;;;;;;26.23;16.85;;;;;;;11.27;81.43;100787.13;5091125;28;20031;-19
2021/10/18 03:57:13;;;;;;;31.95;17.48;;;;;;;11.03;83.02;100785.91;5091557;28;20050;-19
2021/10/18 03:59:39;;;;;;;25.45;16.90;;;;;;;11.29;81.95;100788.78;5072940;28;20071;-19
2021/10/18 04:02:06;;;;;;;27.35;17.65;;;;;;;11.65;80.47;100793.69;5091079;28;20028;-19
2021/10/18 04:04:31;;;;;;;27.17;18.42;;;;;;;12.20;77.78;100790.69;5091115;28;20088;-19
2021/10/18 04:06:57;;;;;;;24.90;17.02;;;;;;;12.04;78.71;100786.63;5072988;28;20525;-19
2021/10/18 04:09:22;;;;;;;25.67;15.75;;;;;;;11.63;80.13;100793.06;5090969;28;20036;-19
2021/10/18 04:11:48;;;;;;;25.17;15.85;;;;;;;11.24;81.87;100792.88;5091012;28;20063;-19
2021/10/18 04:14:13;;;;;;;27.17;17.35;;;;;;;11.30;81.23;100779.72;5091014;28;20028;-19
2021/10/18 04:16:39;;;;;;;27.85;16.73;;;;;;;11.23;81.41;100791.22;5090842;28;20035;-19
2021/10/18 04:19:05;;;;;;;28.60;17.65;;;;;;;11.24;80.95;100794.72;5090511;28;20039;-19
2021/10/18 04:21:30;;;;;;;25.48;17.55;;;;;;;11.43;80.69;100796.56;5072791;28;20028;-19
2021/10/18 04:23:55;;;;;;;29.25;18.27;;;;;;;11.75;79.15;100801.25;5090453;28;20085;-18
2021/10/18 04:26:21;;;;;;;26.77;17.48;;;;;;;11.35;79.13;100783.41;5090591;28;20032;-19
2021/10/18 04:28:47;;;;;;;27.95;16.98;;;;;;;11.07;81.54;100788.97;5072212;28;20034;-19
2021/10/18 04:31:12;;;;;;;28.13;16.50;;;;;;;10.95;82.66;100799.44;5090474;28;20048;-19
2021/10/18 04:33:37;;;;;;;40.47;19.08;;;;;;;11.01;82.73;100797.78;5090422;28;20489;-19
2021/10/18 04:36:03;;;;;;;30.20;18.45;;;;;;;10.93;83.36;100800.63;5090460;28;20028;-19
2021/10/18 04:38:29;;;;;;;29.67;17.98;;;;;;;10.83;82.96;100780.53;5090321;28;20043;-19
2021/10/18 04:40:54;;;;;;;30.30;18.38;;;;;;;10.84;83.62;100797.34;5072321;28;20093;-19
2021/10/18 04:43:20;;;;;;;29.85;18.95;;;;;;;11.16;81.76;100801.09;5090890;28;20028;-19
2021/10/18 04:45:45;;;;;;;28.45;17.85;;;;;;;11.53;80.38;100808.69;5090322;28;20472;-19
2021/10/18 04:48:11;;;;;;;29.50;17.55;;;;;;;11.43;80.43;100811.78;5090395;28;20039;-19
2021/10/18 04:50:36;;;;;;;27.73;16.63;;;;;;;11.17;81.64;100802.72;5072084;28;20039;-19
2021/10/18 04:53:02;;;;;;;29.20;19.25;;;;;;;11.21;80.78;100801.28;5089881;28;20028;-19
2021/10/18 04:55:27;;;;;;;31.65;18.85;;;;;;;11.10;81.78;100809.91;5090520;28;20422;-19
2021/10/18 04:58:02;;;;;;;28.90;18.75;;;;;;;11.06;81.82;100806.00;5090172;28;20463;-19
2021/10/18 05:00:29;;;;;;;29.08;18.25;;;;;;;10.92;83.48;100815.84;5090292;28;20062;-19
2021/10/18 05:02:55;;;;;;;33.13;19.02;;;;;;;11.45;81.55;100823.06;5089719;28;20067;-19
2021/10/18 05:05:20;;;;;;;29.83;18.77;;;;;;;11.58;80.45;100815.03;5090009;28;20060;-19
2021/10/18 05:07:57;;;;;;;34.92;20.08;;;;;;;11.85;79.34;100823.03;5089933;28;20063;-19
2021/10/18 05:10:23;;;;;;;35.10;20.02;;;;;;;12.12;77.88;100831.84;5071714;28;20028;-19
2021/10/18 05:12:48;;;;;;;33.67;21.95;;;;;;;11.85;78.68;100831.06;5089460;28;20039;-19
2021/10/18 05:15:14;;;;;;;33.45;22.27;;;;;;;11.48;80.15;100830.66;5089787;28;20046;-19
2021/10/18 05:17:39;;;;;;;37.10;25.08;;;;;;;11.27;81.37;100837.84;5089956;28;20036;-20
2021/10/18 05:20:05;;;;;;;36.88;26.90;;;;;;;11.49;80.65;100837.66;5089771;28;20058;-19
2021/10/18 05:22:31;;;;;;;41.28;30.27;;;;;;;11.80;79.76;100841.53;5071414;28;20419;-19
2021/10/18 05:24:56;;;;;;;39.38;25.75;;;;;;;12.08;78.42;100843.19;5089224;28;20020;-19
2021/10/18 05:27:22;;;;;;;37.08;24.98;;;;;;;11.65;79.66;100837.25;5089600;28;20036;-19
2021/10/18 05:29:47;;;;;;;35.55;23.95;;;;;;;11.35;81.23;100841.34;5089426;28;20510;-19
2021/10/18 05:32:13;;;;;;;36.97;22.88;;;;;;;11.11;81.80;100846.25;5089408;28;20113;-19
2021/10/18 05:34:38;;;;;;;32.53;22.63;;;;;;;11.50;80.62;100846.47;5088537;28;20028;-19
2021/10/18 05:37:04;;;;;;;38.50;25.40;;;;;;;11.84;79.75;100853.47;5089159;28;20075;-19
2021/10/18 05:39:29;;;;;;;41.20;28.52;;;;;;;11.85;78.55;100849.75;5089136;28;20148;-21
2021/10/18 05:41:55;;;;;;;44.85;30.05;;;;;;;11.72;79.25;100852.44;5071504;28;20486;-21
2021/10/18 05:44:21;;;;;;;42.22;30.50;;;;;;;11.74;79.28;100861.06;5071253;28;20085;-21
2021/10/18 05:46:47;;;;;;;47.08;32.28;;;;;;;12.31;77.58;100856.88;5089328;28;20443;-21
2021/10/18 05:49:12;;;;;;;49.33;34.90;;;;;;;12.25;77.28;100866.56;5071199;28;20240;-20
2021/10/18 05:51:38;;;;;;;42.45;31.90;;;;;;;12.19;77.80;100869.25;5089251;28;20032;-20
2021/10/18 05:54:05;;;;;;;39.03;29.25;;;;;;;12.41;76.27;100865.28;5089244;28;20024;-20
2021/10/18 05:56:30;;;;;;;48.85;36.28;;;;;;;12.19;78.00;100877.28;5089280;28;20122;-19
2021/10/18 05:58:58;;;;;;;45.75;32.33;;;;;;;12.31;77.77;100883.63;5089047;28;20048;-20
2021/10/18 06:01:24;;;;;;;38.17;27.75;;;;;;;12.35;77.68;100887.50;5089309;28;20031;-19
2021/10/18 06:03:50;;;;;;;34.55;23.02;;;;;;;12.17;78.62;100871.31;5089009;28;20032;-19
2021/10/18 06:06:16;;;;;;;79.05;25.42;;;;;;;12.23;78.62;100889.19;5089030;28;20024;-19
2021/10/18 06:08:41;;;;;;;43.42;23.75;;;;;;;12.11;78.76;100886.34;5070811;28;20036;-19
2021/10/18 06:11:07;;;;;;;31.45;21.25;;;;;;;12.25;78.51;100890.63;5088895;28;20039;-20
2021/10/18 06:13:32;;;;;;;32.95;20.73;;;;;;;12.38;76.92;100884.44;5070910;28;20032;-19
2021/10/18 06:15:58;;;;;;;27.95;19.85;;;;;;;12.23;77.70;100899.88;5088937;28;20043;-19
2021/10/18 06:18:23;;;;;;;30.40;20.27;;;;;;;12.76;76.00;100898.91;5088940;28;20024;-18
2021/10/18 06:20:51;;;;;;;28.90;19.13;;;;;;;12.44;77.94;100901.47;5088548;28;20099;-20
2021/10/18 06:23:16;;;;;;;29.05;19.75;;;;;;;12.54;76.30;100899.16;5070817;28;20089;-18
2021/10/18 06:25:42;;;;;;;33.13;19.33;;;;;;;13.05;74.28;100900.19;5070712;28;20036;-20
2021/10/18 06:28:08;;;;;;;32.85;21.58;;;;;;;12.90;75.23;100907.69;5088946;28;20067;-19
2021/10/18 06:30:34;;;;;;;39.05;24.35;;;;;;;12.28;76.41;100900.09;5088678;28;20120;-19
2021/10/18 06:33:00;;;;;;;38.30;24.20;;;;;;;12.52;76.45;100906.59;5088294;28;20044;-19
2021/10/18 06:35:25;;;;;;;44.20;27.60;;;;;;;12.30;77.21;100908.72;5088694;28;20020;-19
2021/10/18 06:37:51;;;;;;;46.50;27.95;;;;;;;12.18;77.24;100911.22;5088656;28;20036;-19
2021/10/18 06:40:16;;;;;;;48.83;27.55;;;;;;;12.41;76.84;100894.69;5088879;28;20415;-20
2021/10/18 06:42:42;;;;;;;45.22;26.70;;;;;;;12.72;76.37;100911.88;5088997;28;20040;-19
2021/10/18 06:45:08;;;;;;;32.92;20.13;;;;;;;12.57;75.05;100909.47;5088323;28;20828;-19
2021/10/18 06:47:34;;;;;;;31.48;18.98;;;;;;;12.68;74.21;100888.44;5092356;28;20032;-19
2021/10/18 06:49:59;;;;;;;30.17;19.95;;;;;;;12.90;73.83;100913.03;5092465;28;20032;-19
2021/10/18 06:52:29;;;;;;;28.35;18.58;;;;;;;12.86;73.84;100924.16;5092566;28;20036;-19
2021/10/18 06:54:55;;;;;;;23.35;16.15;;;;;;;13.10;72.43;100920.94;5092389;28;20036;-19
2021/10/18 06:57:20;;;;;;;30.27;19.13;;;;;;;13.17;73.36;100919.88;5092338;28;20043;-19
2021/10/18 06:59:46;;;;;;;24.75;16.70;;;;;;;13.26;73.35;100923.16;5092282;28;20028;-19
2021/10/18 07:02:11;;;;;;;27.20;16.75;;;;;;;12.63;73.95;100921.19;5074199;28;20502;-19
2021/10/18 07:04:38;;;;;;;26.23;17.42;;;;;;;12.84;74.24;100928.91;5092413;28;20095;-19
2021/10/18 07:07:04;;;;;;;24.88;16.27;;;;;;;12.81;74.20;100924.00;5091749;28;20035;-20
2021/10/18 07:09:29;;;;;;;23.58;16.02;;;;;;;13.09;73.69;100922.81;5092228;28;20051;-20
2021/10/18 07:11:55;;;;;;;26.23;17.88;;;;;;;13.19;73.60;100923.16;5091955;28;20036;-20
2021/10/18 07:14:21;;;;;;;29.58;17.55;;;;;;;12.97;74.44;100924.53;5091830;28;20179;-20
2021/10/18 07:16:46;;;;;;;26.67;17.42;;;;;;;13.02;73.79;100911.34;5091579;28;20032;-20
2021/10/18 07:19:12;;;;;;;24.70;16.23;;;;;;;13.04;73.51;100925.34;5092019;28;20027;-20
2021/10/18 07:21:37;;;;;;;25.73;16.67;;;;;;;13.15;72.83;100919.28;5092116;28;20512;-20
2021/10/18 07:24:05;;;;;;;23.67;17.00;;;;;;;12.96;74.65;100920.22;5091805;28;20032;-19
2021/10/18 07:26:31;;;;;;;27.25;16.55;;;;;;;12.76;75.00;100934.50;5091674;28;20028;-20
2021/10/18 07:28:56;;;;;;;28.23;17.55;;;;;;;13.01;73.53;100931.09;5091682;28;20117;-19
2021/10/18 07:31:22;;;;;;;27.08;18.42;;;;;;;12.98;74.28;100926.19;5091660;28;20052;-21
2021/10/18 07:33:47;;;;;;;26.60;15.85;;;;;;;12.97;73.54;100929.88;5092057;28;20411;-20
2021/10/18 07:36:22;;;;;;;27.33;18.63;;;;;;;13.06;74.38;100934.78;5091717;28;20032;-19
2021/10/18 07:38:49;;;;;;;26.63;15.90;;;;;;;12.81;73.90;100931.19;5091397;28;20032;-20
2021/10/18 07:41:15;;;;;;;22.80;16.27;;;;;;;13.07;74.60;100938.28;5091656;28;20039;-20
2021/10/18 07:43:40;;;;;;;32.45;18.85;;;;;;;13.20;73.56;100935.53;5091593;28;20085;-19
2021/10/18 07:46:06;;;;;;;27.35;17.65;;;;;;;13.15;73.46;100937.22;5091892;28;20411;-20
2021/10/18 07:48:31;;;;;;;24.40;15.55;;;;;;;12.85;73.59;100933.25;5091436;28;20507;-21
2021/10/18 07:50:57;;;;;;;23.55;15.80;;;;;;;12.53;75.49;100934.19;5091412;28;20408;-19
2021/10/18 07:53:22;;;;;;;28.42;16.65;;;;;;;12.99;74.55;100933.97;5091199;28;20024;-20
2021/10/18 07:55:48;;;;;;;25.38;16.73;;;;;;;12.91;74.29;100922.72;5091030;28;20040;-19
2021/10/18 07:58:13;;;;;;;25.60;17.55;;;;;;;13.14;73.25;100935.59;5090728;28;20055;-20
2021/10/18 08:00:39;;;;;;;26.88;17.23;;;;;;;12.62;74.57;100943.63;5091389;28;20032;-20
2021/10/18 08:03:04;;;;;;;27.52;16.38;;;;;;;12.63;74.98;100946.09;5072921;28;20032;-20
2021/10/18 08:05:30;;;;;;;26.45;17.25;;;;;;;12.80;74.59;100949.09;5091089;28;20032;-19
2021/10/18 08:07:55;;;;;;;28.38;18.13;;;;;;;12.95;74.37;100927.41;5091073;28;20028;-19
2021/10/18 08:10:24;;;;;;;24.42;16.92;;;;;;;12.98;74.76;100934.22;5090895;28;20035;-19
2021/10/18 08:12:50;;;;;;;;;;;;;;;13.30;73.68;100936.94;5091123;28;20036;-19
2021/10/18 08:15:15;;;;;;;25.33;17.83;;;;;;;13.33;74.03;100941.88;5090821;28;20352;-20
2021/10/18 08:17:41;;;;;;;26.02;16.83;;;;;;;13.35;73.71;100942.50;5090750;28;20526;-19
2021/10/18 08:20:07;;;;;;;32.28;19.70;;;;;;;13.53;73.12;100937.22;5090801;28;20509;-20
2021/10/18 08:22:33;;;;;;;27.05;17.92;;;;;;;13.59;72.80;100948.94;5090506;28;20024;-20
2021/10/18 08:24:59;;;;;;;25.48;16.80;;;;;;;13.74;72.95;100948.63;5090373;28;20023;-19
2021/10/18 08:27:24;;;;;;;35.15;24.38;;;;;;;14.22;70.69;100953.34;5091132;28;20399;-19
2021/10/18 08:29:50;;;;;;;27.92;18.35;;;;;;;14.38;69.35;100936.66;5090529;28;20035;-20
2021/10/18 08:32:15;;;;;;;30.45;18.98;;;;;;;14.57;70.08;100940.22;5090439;28;20051;-20
2021/10/18 08:34:40;;;;;;;30.88;17.83;;;;;;;14.48;69.19;100949.56;5090371;28;20050;-20
2021/10/18 08:37:06;;;;;;;26.20;17.08;;;;;;;14.39;70.21;100937.50;5090386;28;20047;-19
2021/10/18 08:42:28;;;;;;;25.05;17.02;;;;;;;14.72;69.23;100947.09;5090573;28;20035;-19
2021/10/18 08:44:54;;;;;;;24.88;16.55;;;;;;;14.66;67.14;100916.56;5090059;28;20828;-20
2021/10/18 08:47:25;;;;;;;24.52;16.65;;;;;;;14.64;68.12;100951.69;5055531;28;20027;-20
2021/10/18 08:49:50;;;;;;;27.73;17.25;;;;;;;14.92;67.67;100947.66;5072628;28;20035;-20
2021/10/18 08:52:19;;;;;;;22.27;16.10;;;;;;;14.90;69.03;100943.56;5072265;28;20048;-19
2021/10/18 08:54:45;;;;;;;29.83;17.63;;;;;;;14.66;68.32;100943.41;5089860;28;20039;-22
2021/10/18 08:57:10;;;;;;;24.40;16.30;;;;;;;14.75;68.98;100936.72;5090491;28;20035;-19
2021/10/18 08:59:36;;;;;;;25.13;17.48;;;;;;;14.99;67.99;100947.56;5071716;28;20035;-19
2021/10/18 09:02:01;;;;;;;28.13;17.27;;;;;;;15.29;67.02;100941.41;5090277;28;20461;-20
2021/10/18 09:04:27;;;;;;;26.70;17.73;;;;;;;14.56;69.77;100943.13;5089793;28;20020;-19
2021/10/18 09:06:57;;;;;;;24.65;17.25;;;;;;;13.99;71.35;100927.97;5089952;28;20193;-19
2021/10/18 09:09:25;;;;;;;28.00;17.77;;;;;;;14.47;69.42;100927.28;5089020;28;20035;-20
2021/10/18 09:11:54;;;;;;;26.45;18.15;;;;;;;14.65;70.56;100936.44;5071704;28;20399;-20
2021/10/18 09:14:20;;;;;;;28.75;18.70;;;;;;;14.72;70.25;100936.34;5089834;28;20032;-20
2021/10/18 09:16:46;;;;;;;27.33;18.20;;;;;;;14.99;69.84;100926.88;5071543;28;20456;-20
2021/10/18 09:19:11;;;;;;;27.55;18.27;;;;;;;15.55;67.31;100929.41;5089687;28;20491;-20
2021/10/18 09:21:39;;;;;;;25.85;18.52;;;;;;;15.35;67.74;100914.41;5090096;28;20135;-20
2021/10/18 09:24:05;;;;;;;31.45;21.05;;;;;;;15.56;67.64;100926.50;5089529;28;20027;-19
2021/10/18 09:26:32;;;;;;;22.40;15.68;;;;;;;15.41;66.16;100920.75;5089624;28;20128;-22
2021/10/18 09:29:06;;;;;;;22.90;16.88;;;;;;;15.73;66.49;100926.66;5071415;28;20608;-19
2021/10/18 09:31:31;;;;;;;25.92;17.95;;;;;;;16.27;65.02;100915.81;5089497;28;20167;-20
2021/10/18 09:34:10;;;;;;;22.50;15.25;;;;;;;16.28;63.79;100912.03;5089508;28;20024;-20
2021/10/18 09:36:36;;;;;;;19.90;14.32;;;;;;;16.41;60.81;100911.00;5089292;28;20028;-19
2021/10/18 09:39:16;;;;;;;21.15;14.48;;;;;;;16.09;60.44;100908.69;5088924;28;20089;-21
2021/10/18 09:42:03;;;;;;;18.25;13.32;;;;;;;16.51;59.41;100905.00;5089366;28;20503;-19
2021/10/18 10:52:41;;;;;;;13.55;7.78;;;;;;;19.26;50.79;100833.78;5092454;28;20090;-20
2021/10/18 10:55:20;;;;;;;10.05;7.25;;;;;;;19.40;49.96;100828.75;5092369;28;20032;-20
2021/10/18 10:57:46;;;;;;;12.43;7.43;;;;;;;19.75;49.02;100838.22;5092601;28;20016;-20
2021/10/18 11:00:37;;;;;;;10.95;7.22;;;;;;;19.87;50.04;100839.63;5074191;28;20047;-19
2021/10/18 11:03:21;;;;;;;12.20;7.22;;;;;;;20.62;47.24;100835.94;5092239;28;20081;-19
2021/10/18 11:05:59;;;;;;;12.05;8.00;;;;;;;21.20;46.86;100831.13;5092251;28;20123;-20
2021/10/18 11:08:36;;;;;;;14.48;6.85;;;;;;;20.12;46.09;100804.84;5074293;28;20032;-20
2021/10/18 11:11:08;;;;;;;11.85;7.07;;;;;;;20.24;50.02;100827.91;5092167;28;20062;-19
2021/10/18 11:13:46;;;;;;;8.90;5.47;;;;;;;20.25;47.99;100820.63;5092060;28;20027;-19
2021/10/18 11:16:11;;;;;;;9.10;4.53;;;;;;;20.25;47.79;100815.19;5092306;28;20488;-19
2021/10/18 11:18:38;;;;;;;8.50;5.05;;;;;;;20.54;45.90;100806.63;5092278;28;20089;-19
2021/10/18 11:21:32;;;;;;;9.40;4.95;;;;;;;20.01;47.73;100815.63;5091719;28;20060;-19
2021/10/18 11:23:58;;;;;;;9.18;5.85;;;;;;;20.22;46.56;100810.28;5090211;28;20043;-19
2021/10/18 11:26:24;;;;;;;10.25;5.72;;;;;;;20.11;46.56;100814.88;5091843;28;20028;-19
2021/10/18 11:28:54;;;;;;;8.32;5.78;;;;;;;20.59;47.87;100804.75;5091761;28;20031;-19
2021/10/18 11:31:24;;;;;;;9.63;5.43;;;;;;;20.33;46.86;100809.28;5091776;28;20412;-19
2021/10/18 11:34:19;;;;;;;8.68;5.05;;;;;;;20.50;47.46;100805.53;5090809;28;20509;-19
2021/10/18 11:36:50;;;;;;;8.10;5.20;;;;;;;21.33;44.84;100804.53;5089618;28;20105;-19
2021/10/18 11:39:24;;;;;;;7.03;4.60;;;;;;;20.83;46.63;100791.50;5091614;28;20032;-20
2021/10/18 11:41:59;;;;;;;7.40;4.68;;;;;;;20.59;46.48;100804.75;5091484;28;20484;-19
2021/10/18 11:45:03;;;;;;;44.70;28.38;;;;;;;21.11;44.26;100794.78;5091712;28;20115;-20
2021/10/18 11:47:28;;;;;;;8.05;4.70;;;;;;;21.23;43.49;100803.47;5009095;28;20100;-19
2021/10/18 11:50:10;;;;;;;6.53;4.60;;;;;;;21.80;45.69;100801.50;5009165;28;20417;-20
2021/10/18 11:52:40;;;;;;;13.00;5.55;;;;;;;20.69;44.26;100795.81;5055645;28;20122;-19
2021/10/18 11:55:09;;;;;;;8.75;4.35;;;;;;;20.97;45.57;100782.84;5056723;28;20036;-20
2021/10/18 11:57:42;;;;;;;8.20;4.88;;;;;;;21.61;47.14;100786.88;5091266;28;20028;-20
2021/10/18 12:00:09;;;;;;;9.98;5.30;;;;;;;21.24;44.04;100772.53;5091403;28;20030;-19
2021/10/18 12:02:39;;;;;;;7.87;4.80;;;;;;;20.97;44.65;100783.66;5091336;28;20032;-19
2021/10/18 12:05:04;;;;;;;9.32;4.45;;;;;;;20.33;44.71;100778.63;5073471;28;20070;-20
2021/10/18 12:07:46;;;;;;;8.75;4.50;;;;;;;20.01;48.22;100772.31;5091293;28;20024;-20
2021/10/18 12:10:19;;;;;;;8.18;4.88;;;;;;;20.21;48.01;100778.91;5073079;28;20042;-19
2021/10/18 12:13:03;;;;;;;10.23;4.90;;;;;;;20.91;46.20;100781.22;5091706;28;20596;-22
2021/10/18 12:15:28;;;;;;;10.75;4.40;;;;;;;20.40;46.96;100779.22;5090854;28;20028;-19
2021/10/18 12:17:54;;;;;;;7.63;4.72;;;;;;;20.47;45.58;100775.19;5072749;28;20028;-20
2021/10/18 12:20:19;;;;;;;7.55;4.38;;;;;;;20.96;45.25;100781.22;5090717;28;20070;-19
2021/10/18 12:23:06;;;;;;;7.70;4.40;;;;;;;20.50;45.51;100781.13;5090562;28;20023;-21